createdAt,value
2016-12-22T00:00:18.611Z,1048.42
2016-12-22T00:01:18.594Z,1048.42
2016-12-22T00:02:18.578Z,1048.45
2016-12-22T00:03:18.563Z,1048.45
2016-12-22T00:04:18.545Z,1048.46
2016-12-22T00:05:18.529Z,1048.44
2016-12-22T00:06:18.513Z,1048.44
2016-12-22T00:07:18.499Z,1048.43
2016-12-22T00:08:18.480Z,1048.44
2016-12-22T00:09:18.464Z,1048.38
2016-12-22T00:10:18.448Z,1048.39
2016-12-22T00:11:18.432Z,1048.4
2016-12-22T00:12:18.415Z,1048.44
2016-12-22T00:13:18.399Z,1048.46
2016-12-22T00:14:18.384Z,1048.41
2016-12-22T00:15:18.367Z,1048.42
2016-12-22T00:16:18.351Z,1048.39
2016-12-22T00:17:18.334Z,1048.34
2016-12-22T00:18:18.319Z,1048.33
2016-12-22T00:19:18.302Z,1048.25
2016-12-22T00:20:18.286Z,1048.29
2016-12-22T00:21:18.269Z,1048.31
2016-12-22T00:22:18.254Z,1048.28
2016-12-22T00:23:18.237Z,1048.33
2016-12-22T00:24:18.223Z,1048.32
2016-12-22T00:25:18.205Z,1048.32
2016-12-22T00:26:18.187Z,1048.35
2016-12-22T00:27:18.172Z,1048.35
2016-12-22T00:28:18.156Z,1048.39
2016-12-22T00:29:18.141Z,1048.33
2016-12-22T00:30:18.123Z,1048.32
2016-12-22T00:31:18.109Z,1048.36
2016-12-22T00:32:18.091Z,1048.36
2016-12-22T00:33:18.075Z,1048.37
2016-12-22T00:34:18.061Z,1048.39
2016-12-22T00:35:18.042Z,1048.36
2016-12-22T00:36:18.027Z,1048.39
2016-12-22T00:37:18.009Z,1048.33
2016-12-22T00:38:17.993Z,1048.37
2016-12-22T00:39:18.006Z,1048.37
2016-12-22T00:40:17.961Z,1048.33
2016-12-22T00:41:17.944Z,1048.39
2016-12-22T00:42:17.928Z,1048.36
2016-12-22T00:43:17.912Z,1048.4
2016-12-22T00:44:17.896Z,1048.4
2016-12-22T00:45:17.879Z,1048.33
2016-12-22T00:46:17.863Z,1048.4
2016-12-22T00:47:17.847Z,1048.4
2016-12-22T00:48:17.831Z,1048.42
2016-12-22T00:49:17.814Z,1048.39
2016-12-22T00:50:17.798Z,1048.36
2016-12-22T00:51:17.782Z,1048.36
2016-12-22T00:52:17.765Z,1048.34
2016-12-22T00:53:17.749Z,1048.35
2016-12-22T00:54:17.733Z,1048.34
2016-12-22T00:55:17.718Z,1048.39
2016-12-22T00:56:17.701Z,1048.39
2016-12-22T00:57:17.688Z,1048.39
2016-12-22T00:58:17.669Z,1048.41
2016-12-22T00:59:17.652Z,1048.43
2016-12-22T01:00:17.636Z,1048.43
2016-12-22T01:01:17.620Z,1048.47
2016-12-22T01:02:17.604Z,1048.48
2016-12-22T01:03:17.587Z,1048.51
2016-12-22T01:04:17.572Z,1048.52
2016-12-22T01:05:17.556Z,1048.51
2016-12-22T01:06:17.537Z,1048.52
2016-12-22T01:07:17.521Z,1048.47
2016-12-22T01:08:17.505Z,1048.45
2016-12-22T01:09:17.489Z,1048.46
2016-12-22T01:10:17.473Z,1048.38
2016-12-22T01:11:17.456Z,1048.41
2016-12-22T01:12:17.443Z,1048.42
2016-12-22T01:13:17.424Z,1048.41
2016-12-22T01:14:17.408Z,1048.4
2016-12-22T01:15:17.391Z,1048.39
2016-12-22T01:16:17.375Z,1048.4
2016-12-22T01:17:17.358Z,1048.36
2016-12-22T01:18:17.342Z,1048.38
2016-12-22T01:19:17.326Z,1048.38
2016-12-22T01:20:17.310Z,1048.37
2016-12-22T01:21:17.293Z,1048.41
2016-12-22T01:22:17.277Z,1048.36
2016-12-22T01:23:17.260Z,1048.38
2016-12-22T01:24:17.245Z,1048.36
2016-12-22T01:25:17.227Z,1048.37
2016-12-22T01:26:17.211Z,1048.34
2016-12-22T01:27:17.195Z,1048.34
2016-12-22T01:28:17.178Z,1048.35
2016-12-22T01:29:17.163Z,1048.31
2016-12-22T01:30:17.146Z,1048.32
2016-12-22T01:31:17.130Z,1048.27
2016-12-22T01:32:17.112Z,1048.3
2016-12-22T01:33:17.096Z,1048.3
2016-12-22T01:34:17.080Z,1048.29
2016-12-22T01:35:17.064Z,1048.29
2016-12-22T01:36:17.047Z,1048.34
2016-12-22T01:37:17.031Z,1048.32
2016-12-22T01:38:17.015Z,1048.29
2016-12-22T01:39:17.001Z,1048.31
2016-12-22T01:40:16.981Z,1048.24
2016-12-22T01:41:16.965Z,1048.27
2016-12-22T01:42:16.949Z,1048.32
2016-12-22T01:43:16.932Z,1048.34
2016-12-22T01:44:16.916Z,1048.38
2016-12-22T01:45:16.899Z,1048.4
2016-12-22T01:46:16.883Z,1048.38
2016-12-22T01:47:16.866Z,1048.4
2016-12-22T01:48:16.850Z,1048.35
2016-12-22T01:49:16.834Z,1048.29
2016-12-22T01:50:16.818Z,1048.34
2016-12-22T01:51:16.801Z,1048.37
2016-12-22T01:52:16.784Z,1048.4
2016-12-22T01:53:16.768Z,1048.4
2016-12-22T01:54:16.751Z,1048.38
2016-12-22T01:55:16.735Z,1048.39
2016-12-22T01:56:16.719Z,1048.4
2016-12-22T01:57:16.704Z,1048.35
2016-12-22T01:58:16.685Z,1048.38
2016-12-22T01:59:16.669Z,1048.39
2016-12-22T02:00:16.653Z,1048.44
2016-12-22T02:01:16.635Z,1048.45
2016-12-22T02:02:16.619Z,1048.43
2016-12-22T02:03:16.604Z,1048.41
2016-12-22T02:04:16.587Z,1048.37
2016-12-22T02:05:16.570Z,1048.31
2016-12-22T02:06:16.554Z,1048.4
2016-12-22T02:07:16.537Z,1048.36
2016-12-22T02:08:16.521Z,1048.37
2016-12-22T02:09:16.504Z,1048.4
2016-12-22T02:10:16.488Z,1048.39
2016-12-22T02:11:16.472Z,1048.37
2016-12-22T02:12:16.455Z,1048.39
2016-12-22T02:13:16.438Z,1048.39
2016-12-22T02:14:16.422Z,1048.37
2016-12-22T02:15:16.406Z,1048.31
2016-12-22T02:16:16.388Z,1048.36
2016-12-22T02:17:16.372Z,1048.32
2016-12-22T02:18:16.356Z,1048.32
2016-12-22T02:19:16.340Z,1048.25
2016-12-22T02:20:16.323Z,1048.25
2016-12-22T02:21:16.306Z,1048.26
2016-12-22T02:22:16.290Z,1048.27
2016-12-22T02:23:16.273Z,1048.23
2016-12-22T02:24:16.257Z,1048.28
2016-12-22T02:25:16.241Z,1048.27
2016-12-22T02:26:16.224Z,1048.26
2016-12-22T02:27:16.207Z,1048.27
2016-12-22T02:28:16.192Z,1048.25
2016-12-22T02:29:16.175Z,1048.2
2016-12-22T02:30:16.159Z,1048.23
2016-12-22T02:31:16.142Z,1048.26
2016-12-22T02:32:16.126Z,1048.24
2016-12-22T02:33:16.109Z,1048.24
2016-12-22T02:34:16.092Z,1048.19
2016-12-22T02:35:16.075Z,1048.21
2016-12-22T02:36:16.061Z,1048.27
2016-12-22T02:37:16.043Z,1048.26
2016-12-22T02:38:16.026Z,1048.21
2016-12-22T02:39:16.010Z,1048.19
2016-12-22T02:40:15.993Z,1048.2
2016-12-22T02:41:15.976Z,1048.27
2016-12-22T02:42:15.960Z,1048.22
2016-12-22T02:43:15.943Z,1048.18
2016-12-22T02:44:15.927Z,1048.18
2016-12-22T02:45:15.909Z,1048.21
2016-12-22T02:46:15.893Z,1048.19
2016-12-22T02:47:15.877Z,1048.2
2016-12-22T02:48:15.860Z,1048.21
2016-12-22T02:49:15.843Z,1048.16
2016-12-22T02:50:15.827Z,1048.16
2016-12-22T02:51:15.813Z,1048.11
2016-12-22T02:52:15.793Z,1048.13
2016-12-22T02:53:15.776Z,1048.08
2016-12-22T02:54:15.760Z,1048.08
2016-12-22T02:55:15.743Z,1048.05
2016-12-22T02:56:15.726Z,1048.03
2016-12-22T02:57:15.710Z,1048
2016-12-22T02:58:15.693Z,1048
2016-12-22T02:59:15.677Z,1048.02
2016-12-22T03:00:15.660Z,1048
2016-12-22T03:01:15.643Z,1048
2016-12-22T03:02:15.627Z,1048.04
2016-12-22T03:03:15.610Z,1048.02
2016-12-22T03:04:15.594Z,1048.01
2016-12-22T03:05:15.577Z,1048.03
2016-12-22T03:06:15.561Z,1048.07
2016-12-22T03:07:15.545Z,1048.08
2016-12-22T03:08:15.527Z,1048.1
2016-12-22T03:09:15.511Z,1048.11
2016-12-22T03:10:15.498Z,1048.09
2016-12-22T03:11:15.480Z,1048.07
2016-12-22T03:12:15.461Z,1048.08
2016-12-22T03:13:15.445Z,1048.08
2016-12-22T03:14:15.427Z,1048.1
2016-12-22T03:15:15.411Z,1048.05
2016-12-22T03:16:15.395Z,1048.09
2016-12-22T03:17:15.378Z,1048.1
2016-12-22T03:18:15.361Z,1048.08
2016-12-22T03:19:15.346Z,1048.07
2016-12-22T03:20:15.329Z,1048.09
2016-12-22T03:21:15.312Z,1048.08
2016-12-22T03:22:15.295Z,1048.1
2016-12-22T03:23:15.279Z,1048.09
2016-12-22T03:24:15.262Z,1048.07
2016-12-22T03:25:15.245Z,1048.08
2016-12-22T03:26:15.229Z,1048.07
2016-12-22T03:27:15.212Z,1048.09
2016-12-22T03:28:15.196Z,1048.08
2016-12-22T03:29:15.179Z,1048.11
2016-12-22T03:30:15.162Z,1048.16
2016-12-22T03:31:15.146Z,1048.13
2016-12-22T03:32:15.130Z,1048.1
2016-12-22T03:33:15.112Z,1048.13
2016-12-22T03:34:15.096Z,1048.12
2016-12-22T03:35:15.080Z,1048.16
2016-12-22T03:36:15.062Z,1048.11
2016-12-22T03:37:15.046Z,1048.12
2016-12-22T03:38:15.029Z,1048.11
2016-12-22T03:39:15.013Z,1048.07
2016-12-22T03:40:14.996Z,1048.07
2016-12-22T03:41:14.979Z,1048.09
2016-12-22T03:42:14.963Z,1048.08
2016-12-22T03:43:14.946Z,1048.05
2016-12-22T03:44:14.929Z,1048.03
2016-12-22T03:45:14.913Z,1048
2016-12-22T03:46:14.896Z,1047.98
2016-12-22T03:47:14.879Z,1048.01
2016-12-22T03:48:14.863Z,1048.02
2016-12-22T03:49:14.846Z,1047.99
2016-12-22T03:50:14.829Z,1048
2016-12-22T03:51:14.812Z,1048.05
2016-12-22T03:52:14.796Z,1048.05
2016-12-22T03:53:14.779Z,1048.14
2016-12-22T03:54:14.763Z,1048.12
2016-12-22T03:55:14.747Z,1048.17
2016-12-22T03:56:14.729Z,1048.16
2016-12-22T03:57:14.713Z,1048.17
2016-12-22T03:58:14.696Z,1048.16
2016-12-22T03:59:14.679Z,1048.18
2016-12-22T04:00:14.663Z,1048.13
2016-12-22T04:01:14.647Z,1048.18
2016-12-22T04:02:14.629Z,1048.2
2016-12-22T04:03:14.613Z,1048.22
2016-12-22T04:04:14.596Z,1048.21
2016-12-22T04:05:14.580Z,1048.23
2016-12-22T04:06:14.564Z,1048.23
2016-12-22T04:07:14.548Z,1048.3
2016-12-22T04:08:14.531Z,1048.29
2016-12-22T04:09:14.514Z,1048.29
2016-12-22T04:10:14.498Z,1048.28
2016-12-22T04:11:14.481Z,1048.22
2016-12-22T04:12:14.465Z,1048.13
2016-12-22T04:13:14.447Z,1048.11
2016-12-22T04:14:14.431Z,1048.1
2016-12-22T04:15:14.414Z,1048.09
2016-12-22T04:16:14.397Z,1048.07
2016-12-22T04:17:14.381Z,1048.05
2016-12-22T04:18:14.365Z,1048.08
2016-12-22T04:19:14.349Z,1048.06
2016-12-22T04:20:14.331Z,1048.02
2016-12-22T04:21:14.315Z,1048.04
2016-12-22T04:22:14.298Z,1048.09
2016-12-22T04:23:14.284Z,1048.03
2016-12-22T04:24:14.265Z,1048.01
2016-12-22T04:25:14.248Z,1048.02
2016-12-22T04:26:14.232Z,1048.03
2016-12-22T04:27:14.215Z,1047.99
2016-12-22T04:28:14.199Z,1047.99
2016-12-22T04:29:14.182Z,1048.02
2016-12-22T04:30:14.166Z,1047.96
2016-12-22T04:31:14.149Z,1047.97
2016-12-22T04:32:14.132Z,1047.97
2016-12-22T04:33:14.116Z,1047.94
2016-12-22T04:34:14.099Z,1047.97
2016-12-22T04:35:14.082Z,1047.97
2016-12-22T04:36:14.066Z,1047.95
2016-12-22T04:37:14.049Z,1047.94
2016-12-22T04:38:14.032Z,1047.92
2016-12-22T04:39:14.016Z,1047.89
2016-12-22T04:40:14.000Z,1047.85
2016-12-22T04:41:13.983Z,1047.9
2016-12-22T04:42:13.966Z,1047.91
2016-12-22T04:43:13.950Z,1047.93
2016-12-22T04:44:13.933Z,1047.92
2016-12-22T04:45:13.917Z,1047.94
2016-12-22T04:46:13.900Z,1047.98
2016-12-22T04:47:13.883Z,1047.94
2016-12-22T04:48:13.867Z,1047.89
2016-12-22T04:49:13.850Z,1047.91
2016-12-22T04:50:13.834Z,1047.89
2016-12-22T04:51:13.817Z,1047.84
2016-12-22T04:52:13.801Z,1047.87
2016-12-22T04:53:13.784Z,1047.85
2016-12-22T04:54:13.767Z,1047.84
2016-12-22T04:55:13.751Z,1047.86
2016-12-22T04:56:13.736Z,1047.85
2016-12-22T04:57:13.717Z,1047.88
2016-12-22T04:58:13.701Z,1047.85
2016-12-22T04:59:13.685Z,1047.87
2016-12-22T05:00:13.668Z,1047.88
2016-12-22T05:01:13.651Z,1047.9
2016-12-22T05:02:13.635Z,1047.9
2016-12-22T05:03:13.618Z,1047.86
2016-12-22T05:04:13.606Z,1047.84
2016-12-22T05:05:13.585Z,1047.88
2016-12-22T05:06:13.569Z,1047.87
2016-12-22T05:07:13.552Z,1047.94
2016-12-22T05:08:13.535Z,1047.9
2016-12-22T05:09:13.519Z,1047.92
2016-12-22T05:10:13.503Z,1047.91
2016-12-22T05:11:13.486Z,1047.94
2016-12-22T05:12:13.470Z,1047.94
2016-12-22T05:13:13.453Z,1047.96
2016-12-22T05:14:13.437Z,1047.97
2016-12-22T05:15:13.420Z,1047.98
2016-12-22T05:16:13.403Z,1047.94
2016-12-22T05:17:13.387Z,1047.94
2016-12-22T05:18:13.371Z,1047.93
2016-12-22T05:19:13.354Z,1047.94
2016-12-22T05:20:13.337Z,1047.96
2016-12-22T05:21:13.321Z,1048.01
2016-12-22T05:22:13.304Z,1048.02
2016-12-22T05:23:13.288Z,1048
2016-12-22T05:24:13.275Z,1047.99
2016-12-22T05:25:13.255Z,1047.96
2016-12-22T05:26:13.238Z,1047.97
2016-12-22T05:27:13.222Z,1047.94
2016-12-22T05:28:13.208Z,1047.95
2016-12-22T05:29:13.189Z,1047.93
2016-12-22T05:30:13.172Z,1047.93
2016-12-22T05:31:13.156Z,1047.94
2016-12-22T05:32:13.139Z,1047.93
2016-12-22T05:33:13.123Z,1047.95
2016-12-22T05:34:13.106Z,1047.98
2016-12-22T05:35:13.092Z,1047.95
2016-12-22T05:36:13.074Z,1047.93
2016-12-22T05:37:13.057Z,1047.92
2016-12-22T05:38:13.041Z,1047.92
2016-12-22T05:39:13.024Z,1047.9
2016-12-22T05:40:13.008Z,1047.93
2016-12-22T05:41:12.992Z,1047.91
2016-12-22T05:42:12.976Z,1047.86
2016-12-22T05:43:12.960Z,1047.9
2016-12-22T05:44:12.943Z,1047.84
2016-12-22T05:45:12.926Z,1047.85
2016-12-22T05:46:12.910Z,1047.85
2016-12-22T05:47:12.894Z,1047.79
2016-12-22T05:48:12.877Z,1047.81
2016-12-22T05:49:12.861Z,1047.81
2016-12-22T05:50:12.845Z,1047.82
2016-12-22T05:51:12.827Z,1047.85
2016-12-22T05:52:12.811Z,1047.89
2016-12-22T05:53:12.795Z,1047.87
2016-12-22T05:54:12.779Z,1047.92
2016-12-22T05:55:12.764Z,1047.92
2016-12-22T05:56:12.746Z,1047.9
2016-12-22T05:57:12.730Z,1047.9
2016-12-22T05:58:12.714Z,1047.93
2016-12-22T05:59:12.696Z,1047.98
2016-12-22T06:00:12.680Z,1047.93
2016-12-22T06:01:12.664Z,1047.97
2016-12-22T06:02:12.647Z,1047.95
2016-12-22T06:03:12.631Z,1047.95
2016-12-22T06:04:12.615Z,1047.98
2016-12-22T06:05:12.599Z,1047.98
2016-12-22T06:06:12.582Z,1047.95
2016-12-22T06:07:12.566Z,1047.93
2016-12-22T06:08:12.550Z,1047.93
2016-12-22T06:09:12.534Z,1047.93
2016-12-22T06:10:12.516Z,1047.92
2016-12-22T06:11:12.500Z,1047.89
2016-12-22T06:12:12.484Z,1047.93
2016-12-22T06:13:12.467Z,1047.89
2016-12-22T06:14:12.451Z,1047.96
2016-12-22T06:15:12.435Z,1047.91
2016-12-22T06:16:12.419Z,1047.9
2016-12-22T06:17:12.402Z,1047.93
2016-12-22T06:18:12.386Z,1047.92
2016-12-22T06:19:12.370Z,1047.94
2016-12-22T06:20:12.353Z,1047.94
2016-12-22T06:21:12.336Z,1047.88
2016-12-22T06:22:12.320Z,1047.89
2016-12-22T06:23:12.304Z,1047.86
2016-12-22T06:24:12.288Z,1047.9
2016-12-22T06:25:12.271Z,1047.94
2016-12-22T06:26:12.255Z,1047.9
2016-12-22T06:27:12.239Z,1047.9
2016-12-22T06:28:12.222Z,1047.87
2016-12-22T06:29:12.206Z,1047.86
2016-12-22T06:30:12.190Z,1047.9
2016-12-22T06:31:12.174Z,1047.88
2016-12-22T06:32:12.158Z,1047.85
2016-12-22T06:33:12.141Z,1047.88
2016-12-22T06:34:12.125Z,1047.9
2016-12-22T06:35:12.108Z,1047.92
2016-12-22T06:36:12.091Z,1047.92
2016-12-22T06:37:12.075Z,1047.92
2016-12-22T06:38:12.059Z,1047.9
2016-12-22T06:39:12.043Z,1047.9
2016-12-22T06:40:12.026Z,1047.95
2016-12-22T06:41:12.011Z,1047.98
2016-12-22T06:42:11.994Z,1047.97
2016-12-22T06:43:11.977Z,1047.95
2016-12-22T06:44:11.961Z,1047.96
2016-12-22T06:45:11.945Z,1047.94
2016-12-22T06:46:11.928Z,1047.99
2016-12-22T06:47:11.912Z,1047.98
2016-12-22T06:48:11.896Z,1048.02
2016-12-22T06:49:11.881Z,1048.02
2016-12-22T06:50:11.864Z,1048.06
2016-12-22T06:51:11.848Z,1048.06
2016-12-22T06:52:11.831Z,1048.07
2016-12-22T06:53:11.815Z,1048.06
2016-12-22T06:54:11.799Z,1048.03
2016-12-22T06:55:11.782Z,1048.12
2016-12-22T06:56:11.767Z,1048.14
2016-12-22T06:57:11.749Z,1048.15
2016-12-22T06:58:11.733Z,1048.1
2016-12-22T06:59:11.717Z,1048.08
2016-12-22T07:00:11.701Z,1048.05
2016-12-22T07:01:11.685Z,1048.06
2016-12-22T07:02:11.668Z,1048.07
2016-12-22T07:03:11.655Z,1048.12
2016-12-22T07:04:11.636Z,1048.07
2016-12-22T07:05:11.619Z,1048.07
2016-12-22T07:06:11.604Z,1048.06
2016-12-22T07:07:11.589Z,1048.05
2016-12-22T07:08:11.572Z,1048.06
2016-12-22T07:09:11.575Z,1048.06
2016-12-22T07:10:11.539Z,1048.11
2016-12-22T07:11:11.523Z,1048.08
2016-12-22T07:12:11.506Z,1048.07
2016-12-22T07:13:11.490Z,1048.12
2016-12-22T07:14:11.474Z,1048.1
2016-12-22T07:15:11.458Z,1048.07
2016-12-22T07:16:11.442Z,1048.03
2016-12-22T07:17:11.426Z,1048.06
2016-12-22T07:18:11.410Z,1048.07
2016-12-22T07:19:11.393Z,1048.05
2016-12-22T07:20:11.377Z,1048.01
2016-12-22T07:21:11.362Z,1047.98
2016-12-22T07:22:11.345Z,1047.96
2016-12-22T07:23:11.329Z,1047.92
2016-12-22T07:24:11.313Z,1047.87
2016-12-22T07:25:11.297Z,1047.89
2016-12-22T07:26:11.280Z,1047.89
2016-12-22T07:27:11.265Z,1047.88
2016-12-22T07:28:11.249Z,1047.86
2016-12-22T07:29:11.237Z,1047.84
2016-12-22T07:30:11.216Z,1047.81
2016-12-22T07:31:11.201Z,1047.82
2016-12-22T07:32:11.185Z,1047.81
2016-12-22T07:33:11.169Z,1047.79
2016-12-22T07:34:11.153Z,1047.81
2016-12-22T07:35:11.137Z,1047.8
2016-12-22T07:36:11.121Z,1047.79
2016-12-22T07:37:11.104Z,1047.83
2016-12-22T07:38:11.089Z,1047.85
2016-12-22T07:39:11.073Z,1047.85
2016-12-22T07:40:11.057Z,1047.8
2016-12-22T07:41:11.041Z,1047.74
2016-12-22T07:42:11.025Z,1047.74
2016-12-22T07:43:11.010Z,1047.73
2016-12-22T07:44:10.994Z,1047.72
2016-12-22T07:45:10.977Z,1047.66
2016-12-22T07:46:10.961Z,1047.65
2016-12-22T07:47:10.946Z,1047.63
2016-12-22T07:48:10.929Z,1047.62
2016-12-22T07:49:10.913Z,1047.61
2016-12-22T07:50:10.898Z,1047.63
2016-12-22T07:51:10.883Z,1047.64
2016-12-22T07:52:10.866Z,1047.6
2016-12-22T07:53:10.850Z,1047.6
2016-12-22T07:54:10.835Z,1047.55
2016-12-22T07:55:10.820Z,1047.48
2016-12-22T07:56:10.803Z,1047.41
2016-12-22T07:57:10.787Z,1047.42
2016-12-22T07:58:10.772Z,1047.41
2016-12-22T07:59:10.755Z,1047.37
2016-12-22T08:00:10.740Z,1047.43
2016-12-22T08:01:10.725Z,1047.35
2016-12-22T08:02:10.709Z,1047.32
2016-12-22T08:03:10.693Z,1047.32
2016-12-22T08:04:10.678Z,1047.21
2016-12-22T08:05:10.663Z,1047.22
2016-12-22T08:06:10.647Z,1047.21
2016-12-22T08:07:10.631Z,1047.22
2016-12-22T08:08:10.615Z,1047.22
2016-12-22T08:09:10.602Z,1047.22
2016-12-22T08:10:10.585Z,1047.17
2016-12-22T08:11:10.569Z,1047.16
2016-12-22T08:12:10.554Z,1047.16
2016-12-22T08:13:10.539Z,1047.15
2016-12-22T08:14:10.523Z,1047.15
2016-12-22T08:15:10.508Z,1047.13
2016-12-22T08:16:10.493Z,1047.11
2016-12-22T08:17:10.478Z,1047.11
2016-12-22T08:18:10.462Z,1047.03
2016-12-22T08:19:10.447Z,1046.96
2016-12-22T08:20:10.432Z,1046.93
2016-12-22T08:21:10.416Z,1046.89
2016-12-22T08:22:10.400Z,1046.88
2016-12-22T08:23:10.386Z,1046.87
2016-12-22T08:24:10.371Z,1046.86
2016-12-22T08:25:10.355Z,1046.8
2016-12-22T08:26:10.340Z,1046.71
2016-12-22T08:27:10.327Z,1046.67
2016-12-22T08:28:10.311Z,1046.57
2016-12-22T08:29:10.295Z,1046.47
2016-12-22T08:30:10.280Z,1046.41
2016-12-22T08:31:10.267Z,1046.33
2016-12-22T08:32:10.250Z,1046.2
2016-12-22T08:33:10.236Z,1046.15
2016-12-22T08:34:10.222Z,1046.1
2016-12-22T08:35:10.207Z,1046.03
2016-12-22T08:36:10.192Z,1045.88
2016-12-22T08:37:10.177Z,1045.86
2016-12-22T08:38:10.164Z,1045.82
2016-12-22T08:39:10.149Z,1045.8
2016-12-22T08:40:10.134Z,1045.72
2016-12-22T08:41:10.120Z,1045.64
2016-12-22T08:42:10.107Z,1045.58
2016-12-22T08:43:10.093Z,1045.5
2016-12-22T08:44:10.079Z,1045.42
2016-12-22T08:45:10.064Z,1045.32
2016-12-22T08:46:10.051Z,1045.28
2016-12-22T08:47:10.036Z,1045.23
2016-12-22T08:48:10.022Z,1045.13
2016-12-22T08:49:10.009Z,1045.1
2016-12-22T08:50:09.996Z,1045.11
2016-12-22T08:51:09.982Z,1045.09
2016-12-22T08:52:09.969Z,1045.08
2016-12-22T08:53:09.956Z,1045.11
2016-12-22T08:54:09.942Z,1045.13
2016-12-22T08:55:09.929Z,1045.1
2016-12-22T08:56:09.916Z,1045.04
2016-12-22T08:57:09.903Z,1045.02
2016-12-22T08:58:09.892Z,1044.98
2016-12-22T08:59:09.878Z,1044.89
2016-12-22T09:00:09.865Z,1044.9
2016-12-22T09:01:09.851Z,1044.84
2016-12-22T09:02:09.839Z,1044.84
2016-12-22T09:03:09.827Z,1044.83
2016-12-22T09:04:09.815Z,1044.86
2016-12-22T09:05:09.801Z,1044.82
2016-12-22T09:06:09.788Z,1044.78
2016-12-22T09:07:09.777Z,1044.68
2016-12-22T09:08:09.765Z,1044.69
2016-12-22T09:09:09.751Z,1044.61
2016-12-22T09:10:09.740Z,1044.56
2016-12-22T09:11:09.727Z,1044.52
2016-12-22T09:12:09.715Z,1044.46
2016-12-22T09:13:09.704Z,1044.45
2016-12-22T09:14:09.691Z,1044.38
2016-12-22T09:15:09.679Z,1044.35
2016-12-22T09:16:09.666Z,1044.28
2016-12-22T09:17:09.654Z,1044.28
2016-12-22T09:19:18.254Z,1044.27
2016-12-22T09:22:22.647Z,1044.22
2016-12-22T09:23:22.635Z,1044.22
2016-12-22T09:24:22.623Z,1044.19
2016-12-22T09:25:22.622Z,1044.12
2016-12-22T09:26:22.601Z,1044.09
2016-12-22T09:27:22.589Z,1044.07
2016-12-22T09:28:22.578Z,1044.08
2016-12-22T09:29:22.568Z,1044
2016-12-22T09:30:22.556Z,1044.01
2016-12-22T09:31:22.544Z,1043.95
2016-12-22T09:32:22.532Z,1043.86
2016-12-22T09:33:22.522Z,1043.86
2016-12-22T09:34:22.510Z,1043.8
2016-12-22T09:35:22.498Z,1043.81
2016-12-22T09:36:22.487Z,1043.75
2016-12-22T09:37:22.476Z,1043.78
2016-12-22T09:38:22.464Z,1043.78
2016-12-22T09:39:22.453Z,1043.78
2016-12-22T09:40:22.442Z,1043.74
2016-12-22T09:41:22.431Z,1043.79
2016-12-22T09:42:22.423Z,1043.78
2016-12-22T09:43:22.408Z,1043.74
2016-12-22T09:44:22.397Z,1043.7
2016-12-22T09:45:22.387Z,1043.74
2016-12-22T09:46:22.375Z,1043.75
2016-12-22T09:47:22.364Z,1043.73
2016-12-22T09:48:22.353Z,1043.78
2016-12-22T09:49:22.341Z,1043.77
2016-12-22T09:50:22.330Z,1043.76
2016-12-22T09:51:22.319Z,1043.76
2016-12-22T09:52:22.309Z,1043.71
2016-12-22T09:53:22.297Z,1043.65
2016-12-22T09:54:22.286Z,1043.61
2016-12-22T09:55:22.275Z,1043.56
2016-12-22T09:56:22.264Z,1043.5
2016-12-22T09:57:22.252Z,1043.48
2016-12-22T09:58:22.241Z,1043.43
2016-12-22T09:59:22.231Z,1043.4
2016-12-22T10:00:22.219Z,1043.42
2016-12-22T10:01:22.208Z,1043.47
2016-12-22T10:02:22.198Z,1043.45
2016-12-22T10:03:22.187Z,1043.47
2016-12-22T10:04:22.176Z,1043.44
2016-12-22T10:05:22.165Z,1043.44
2016-12-22T10:06:22.158Z,1043.49
2016-12-22T10:07:22.144Z,1043.42
2016-12-22T10:08:22.132Z,1043.48
2016-12-22T10:09:22.122Z,1043.47
2016-12-22T10:10:22.111Z,1043.46
2016-12-22T10:11:22.101Z,1043.44
2016-12-22T10:12:22.090Z,1043.36
2016-12-22T10:13:22.079Z,1043.32
2016-12-22T10:14:22.068Z,1043.3
2016-12-22T10:15:22.057Z,1043.24
2016-12-22T10:16:22.046Z,1043.2
2016-12-22T10:17:22.036Z,1043.11
2016-12-22T10:18:22.025Z,1043.11
2016-12-22T10:19:22.015Z,1043.12
2016-12-22T10:20:22.004Z,1043.2
2016-12-22T10:21:21.994Z,1043.28
2016-12-22T10:22:21.983Z,1043.28
2016-12-22T10:23:21.972Z,1043.31
2016-12-22T10:24:21.963Z,1043.28
2016-12-22T10:25:21.952Z,1043.24
2016-12-22T10:26:21.941Z,1043.14
2016-12-22T10:27:21.931Z,1043.04
2016-12-22T10:28:21.922Z,1042.92
2016-12-22T10:29:21.911Z,1042.87
2016-12-22T10:30:21.900Z,1042.85
2016-12-22T10:31:21.892Z,1042.74
2016-12-22T10:32:21.880Z,1042.68
2016-12-22T10:33:21.869Z,1042.67
2016-12-22T10:34:21.861Z,1042.58
2016-12-22T10:35:21.849Z,1042.57
2016-12-22T10:36:21.839Z,1042.5
2016-12-22T10:37:21.829Z,1042.51
2016-12-22T10:38:21.819Z,1042.53
2016-12-22T10:39:21.809Z,1042.55
2016-12-22T10:40:21.799Z,1042.53
2016-12-22T10:41:21.788Z,1042.6
2016-12-22T10:42:21.780Z,1042.58
2016-12-22T10:43:21.769Z,1042.64
2016-12-22T10:44:21.759Z,1042.59
2016-12-22T10:45:21.749Z,1042.59
2016-12-22T10:46:21.739Z,1042.57
2016-12-22T10:47:21.731Z,1042.56
2016-12-22T10:48:21.720Z,1042.56
2016-12-22T10:49:21.710Z,1042.62
2016-12-22T10:50:21.701Z,1042.6
2016-12-22T10:51:21.691Z,1042.53
2016-12-22T10:52:21.681Z,1042.51
2016-12-22T10:53:21.671Z,1042.48
2016-12-22T10:54:21.662Z,1042.44
2016-12-22T10:55:21.651Z,1042.44
2016-12-22T10:56:21.642Z,1042.5
2016-12-22T10:57:21.633Z,1042.48
2016-12-22T10:58:21.623Z,1042.38
2016-12-22T10:59:21.614Z,1042.38
2016-12-22T11:00:21.604Z,1042.34
2016-12-22T11:01:21.593Z,1042.31
2016-12-22T11:02:21.584Z,1042.25
2016-12-22T11:03:21.575Z,1042.19
2016-12-22T11:04:21.566Z,1042.13
2016-12-22T11:05:21.557Z,1042.16
2016-12-22T11:06:21.547Z,1042.2
2016-12-22T11:07:21.539Z,1042.25
2016-12-22T11:08:21.528Z,1042.26
2016-12-22T11:09:21.518Z,1042.38
2016-12-22T11:10:21.508Z,1042.37
2016-12-22T11:11:21.499Z,1042.4
2016-12-22T11:12:21.490Z,1042.39
2016-12-22T11:13:21.480Z,1042.34
2016-12-22T11:14:21.470Z,1042.26
2016-12-22T11:15:21.462Z,1042.23
2016-12-22T11:16:21.452Z,1042.26
2016-12-22T11:17:21.441Z,1042.27
2016-12-22T11:18:21.432Z,1042.28
2016-12-22T11:19:21.423Z,1042.24
2016-12-22T11:20:21.413Z,1042.25
2016-12-22T11:21:21.403Z,1042.33
2016-12-22T11:22:21.394Z,1042.41
2016-12-22T11:23:21.385Z,1042.46
2016-12-22T11:24:21.374Z,1042.49
2016-12-22T11:25:21.367Z,1042.5
2016-12-22T11:26:21.356Z,1042.47
2016-12-22T11:27:21.348Z,1042.44
2016-12-22T11:28:21.337Z,1042.43
2016-12-22T11:29:21.327Z,1042.44
2016-12-22T11:30:21.318Z,1042.48
2016-12-22T11:31:21.309Z,1042.47
2016-12-22T11:32:21.299Z,1042.52
2016-12-22T11:33:21.288Z,1042.47
2016-12-22T11:34:21.278Z,1042.47
2016-12-22T11:35:21.271Z,1042.46
2016-12-22T11:36:21.258Z,1042.39
2016-12-22T11:37:21.249Z,1042.33
2016-12-22T11:38:21.240Z,1042.29
2016-12-22T11:39:21.229Z,1042.34
2016-12-22T11:40:21.220Z,1042.33
2016-12-22T11:41:21.210Z,1042.33
2016-12-22T11:42:21.200Z,1042.34
2016-12-22T11:43:21.189Z,1042.44
2016-12-22T11:44:21.180Z,1042.49
2016-12-22T11:45:21.171Z,1042.48
2016-12-22T11:46:21.161Z,1042.46
2016-12-22T11:47:21.151Z,1042.49
2016-12-22T11:48:21.141Z,1042.44
2016-12-22T11:49:21.133Z,1042.41
2016-12-22T11:50:21.121Z,1042.39
2016-12-22T11:51:21.111Z,1042.39
2016-12-22T11:52:21.102Z,1042.39
2016-12-22T11:53:21.092Z,1042.42
2016-12-22T11:54:21.082Z,1042.42
2016-12-22T11:55:21.072Z,1042.48
2016-12-22T11:56:21.062Z,1042.49
2016-12-22T11:57:21.053Z,1042.47
2016-12-22T11:58:21.042Z,1042.45
2016-12-22T11:59:21.032Z,1042.48
2016-12-22T12:00:21.023Z,1042.42
2016-12-22T12:01:21.012Z,1042.45
2016-12-22T12:02:21.003Z,1042.42
2016-12-22T12:03:20.993Z,1042.38
2016-12-22T12:04:20.984Z,1042.39
2016-12-22T12:05:20.973Z,1042.47
2016-12-22T12:06:20.963Z,1042.47
2016-12-22T12:07:20.955Z,1042.56
2016-12-22T12:08:20.943Z,1042.62
2016-12-22T12:09:20.933Z,1042.65
2016-12-22T12:10:20.924Z,1042.67
2016-12-22T12:11:20.915Z,1042.71